Portada
METAR-TAF:

METAR-TAF

Aeropuertos :

Aeropuerto Internacional de Mehrabad

Teherán, Irán

latitud: 35-41N, longitud: 051-21E, altitud: 1204 m

Observación

El informe se hizo hace 32 minutos, a las 00:00 UTC
Viento 4 kt del noreste
Temperatura 28°C
Humedad 17%
Presión 1020 hPa
Visibilidad 10 km o más
Escasas nubes a una altura de 10000 ft

METAR: OIII 280000Z 04004KT 9999 FEW100 28/01 Q1019 A3011 NOSIG

Hora: 05:02 (00:32 UTC)

Pronóstico

El informe se hizo hace 1 hora y 32 minutos, a las 23:00 UTC
Pronóstico válido del 28 a las 00 UTC al 29 a las 06 UTC
Viento 6 kt del oeste-noroeste
Visibilidad: 8000 m
Escasas nubes a una altura de 4000 ft
Temporalmente
del 28 a las 12 UTC al 28 a las 18 UTC
Viento 16 kt del oeste-suroeste
Escasas nubes a una altura de 3500 ft, Cumulonimbus.
Nubes dispersas a una altura de 4000 ft

TAF: OIII 272300Z 2800/2906 30006KT 8000 FEW040 TEMPO 2812/2818 25016KT FEW035CB SCT040

Observaciones y pronósticos meteorológicos de más de 4000 aeropuertos (mensajes METAR y TAF).

Los puntos amarillos y rojos representan las estaciones disponibles.

Ponga el ratón en el punto deseado para ver el nombre de la estación.

Haga clic para ver las observaciones y los pronósticos meteorológicos.

Para cambiar el mapa : haga clic en los botones verdes con una cruz de color negro para hacer un zoom, en el botón verde con un guión para alejar o en las flechas verdes para mapas adyacentes.


METAR-TAF: